| time (UTC) | temp C | wind direction | speed KPH | gust KPH | rain 1hr cm | rain 24hr cm | rain mn cm | humidity % | barometer mb |
| 20260509173827 | 30 | 48 | 8.0 | 9.7 | 0.00 | 0.00 | 0.00 | 49 | 1009.4 |
| 20260509173323 | 29 | 316 | 4.8 | 8.0 | 0.00 | 0.00 | 0.00 | 51 | 1009.3 |
| 20260509172820 | 30 | 88 | 1.6 | 1.6 | 0.00 | 0.00 | 0.00 | 49 | 1009.5 |
| 20260509172316 | 29 | 48 | 4.8 | 4.8 | 0.00 | 0.00 | 0.00 | 52 | 1009.4 |
| 20260509171812 | 28 | 237 | 4.8 | 8.0 | 0.00 | 0.00 | 0.00 | 52 | 1009.5 |
| 20260509171308 | 28 | 37 | 3.2 | 3.2 | 0.00 | 0.00 | 0.00 | 51 | 1009.3 |
| 20260509170805 | 28 | 344 | 1.6 | 1.6 | 0.00 | 0.00 | 0.00 | 52 | 1009.5 |
| 20260509170300 | 28 | 63 | 6.4 | 8.0 | 0.00 | 0.00 | 0.00 | 51 | 1009.7 |
| 20260509165800 | 28 | 211 | 4.8 | 8.0 | 0.00 | 0.00 | 0.00 | 50 | 1009.5 |
| 20260509165255 | 28 | 277 | 4.8 | 8.0 | 0.00 | 0.00 | 0.00 | 52 | 1009.9 |
| 20260509164751 | 28 | 278 | 3.2 | 4.8 | 0.00 | 0.00 | 0.00 | 52 | 1009.7 |
| 20260509164247 | 28 | 276 | 9.7 | 12.9 | 0.00 | 0.00 | 0.00 | 53 | 1009.7 |
| 20260509163745 | 27 | 280 | 8.0 | 11.3 | 0.00 | 0.00 | 0.00 | 52 | 1009.6 |
| 20260509163241 | 28 | 9 | 3.2 | 3.2 | 0.00 | 0.00 | 0.00 | 53 | 1009.7 |
| 20260509162739 | 28 | 111 | 3.2 | 4.8 | 0.00 | 0.00 | 0.00 | 54 | 1009.8 |
| 20260509162233 | 27 | 184 | 3.2 | 3.2 | 0.00 | 0.00 | 0.00 | 56 | 1009.7 |
| 20260509161729 | 27 | 131 | 1.6 | 1.6 | 0.00 | 0.00 | 0.00 | 58 | 1009.8 |
| 20260509161226 | 27 | 334 | 6.4 | 8.0 | 0.00 | 0.00 | 0.00 | 58 | 1009.5 |
| 20260509160721 | 27 | 259 | 4.8 | 4.8 | 0.00 | 0.00 | 0.00 | 58 | 1009.7 |
| 20260509160218 | 27 | 326 | 4.8 | 4.8 | 0.00 | 0.00 | 0.00 | 59 | 1009.6 |
| 20260509155712 | 27 | 334 | 6.4 | 8.0 | 0.00 | 0.00 | 0.00 | 59 | 1009.7 |
| 20260509155209 | 27 | 317 | 1.6 | 3.2 | 0.00 | 0.00 | 0.00 | 58 | 1009.4 |
| 20260509154706 | 27 | 146 | 3.2 | 3.2 | 0.00 | 0.00 | 0.00 | 59 | 1009.5 |
| 20260509154203 | 27 | 320 | 9.7 | 12.9 | 0.00 | 0.00 | 0.00 | 57 | 1009.5 |
| 20260509153700 | 26 | 349 | 4.8 | 8.0 | 0.00 | 0.00 | 0.00 | 59 | 1009.6 |
| 20260509153156 | 26 | 321 | 6.4 | 8.0 | 0.00 | 0.00 | 0.00 | 60 | 1009.6 |
| 20260509152652 | 26 | 348 | 9.7 | 11.3 | 0.00 | 0.00 | 0.00 | 61 | 1009.5 |
| 20260509152149 | 26 | 264 | 6.4 | 9.7 | 0.00 | 0.00 | 0.00 | 64 | 1009.6 |
| 20260509151645 | 26 | 303 | 4.8 | 8.0 | 0.00 | 0.00 | 0.00 | 65 | 1009.7 |
| 20260509151143 | 26 | 298 | 8.0 | 9.7 | 0.00 | 0.00 | 0.00 | 66 | 1009.7 |
| 20260509150641 | 26 | 219 | 1.6 | 3.2 | 0.00 | 0.00 | 0.00 | 68 | 1009.7 |
| 20260509150139 | 26 | 224 | 4.8 | 4.8 | 0.00 | 0.00 | 0.00 | 67 | 1009.7 |
| 20260509145635 | 25 | 177 | 4.8 | 4.8 | 0.00 | 0.00 | 0.00 | 68 | 1009.8 |
| 20260509145130 | 25 | 223 | 4.8 | 4.8 | 0.00 | 0.00 | 0.00 | 67 | 1009.7 |
| 20260509144627 | 25 | 160 | 3.2 | 3.2 | 0.00 | 0.00 | 0.00 | 71 | 1009.9 |
| 20260509144124 | 25 | 250 | 4.8 | 8.0 | 0.00 | 0.00 | 0.00 | 72 | 1009.8 |
| 20260509143621 | 25 | 276 | 3.2 | 3.2 | 0.00 | 0.00 | 0.00 | 73 | 1009.8 |
| 20260509143119 | 24 | 309 | 3.2 | 4.8 | 0.00 | 0.00 | 0.00 | 75 | 1009.7 |
| 20260509142614 | 24 | 286 | 3.2 | 4.8 | 0.00 | 0.00 | 0.00 | 76 | 1009.7 |
| 20260509142110 | 24 | 209 | 1.6 | 3.2 | 0.00 | 0.00 | 0.00 | 77 | 1009.7 |
| 20260509141606 | 23 | 96 | 0.0 | 1.6 | 0.00 | 0.00 | 0.00 | 78 | 1009.7 |
| 20260509141103 | 23 | 357 | 8.0 | 9.7 | 0.00 | 0.00 | 0.00 | 78 | 1009.8 |
| 20260509140600 | 23 | 168 | 1.6 | 3.2 | 0.00 | 0.00 | 0.00 | 79 | 1009.6 |
| 20260509140058 | 23 | 323 | 4.8 | 4.8 | 0.00 | 0.00 | 0.00 | 81 | 1009.6 |
| 20260509135555 | 22 | 328 | 4.8 | 4.8 | 0.00 | 0.00 | 0.00 | 82 | 1009.7 |
| 20260509135053 | 22 | 4 | 1.6 | 3.2 | 0.00 | 0.00 | 0.00 | 83 | 1009.8 |
| 20260509134549 | 22 | 358 | 4.8 | 4.8 | 0.00 | 0.00 | 0.00 | 84 | 1009.4 |
| 20260509134047 | 22 | 313 | 8.0 | 11.3 | 0.00 | 0.00 | 0.00 | 84 | 1009.7 |
| 20260509133544 | 22 | 248 | 3.2 | 3.2 | 0.00 | 0.00 | 0.00 | 85 | 1009.5 |
| 20260509133041 | 22 | 252 | 3.2 | 3.2 | 0.00 | 0.00 | 0.00 | 85 | 1009.6 |
| 20260509132540 | 21 | 284 | 3.2 | 3.2 | 0.00 | 0.00 | 0.00 | 85 | 1009.5 |
| 20260509132038 | 21 | 319 | 4.8 | 8.0 | 0.00 | 0.00 | 0.00 | 85 | 1009.4 |
| 20260509131533 | 21 | 283 | 4.8 | 4.8 | 0.00 | 0.00 | 0.00 | 85 | 1009.5 |
| 20260509131031 | 21 | 289 | 11.3 | 11.3 | 0.00 | 0.00 | 0.00 | 85 | 1009.7 |
| 20260509130526 | 21 | 233 | 4.8 | 4.8 | 0.00 | 0.00 | 0.00 | 85 | 1009.4 |
| 20260509130023 | 21 | 269 | 4.8 | 8.0 | 0.00 | 0.00 | 0.00 | 85 | 1009.6 |
| 20260509125519 | 21 | 348 | 4.8 | 4.8 | 0.00 | 0.00 | 0.00 | 85 | 1009.5 |
| 20260509125016 | 21 | 278 | 4.8 | 4.8 | 0.00 | 0.00 | 0.00 | 85 | 1009.5 |
| 20260509124512 | 21 | 336 | 6.4 | 8.0 | 0.00 | 0.00 | 0.00 | 85 | 1009.4 |
| 20260509124010 | 21 | 300 | 6.4 | 9.7 | 0.00 | 0.00 | 0.00 | 86 | 1009.3 |
| 20260509123508 | 21 | 111 | 3.2 | 4.8 | 0.00 | 0.00 | 0.00 | 86 | 1009.4 |
| 20260509123004 | 21 | 313 | 4.8 | 8.0 | 0.00 | 0.00 | 0.00 | 87 | 1009.5 |
| 20260509122500 | 21 | 288 | 6.4 | 8.0 | 0.00 | 0.00 | 0.00 | 88 | 1009.0 |
| 20260509121957 | 21 | 334 | 3.2 | 4.8 | 0.00 | 0.00 | 0.00 | 88 | 1009.4 |
| 20260509121454 | 21 | 202 | 3.2 | 3.2 | 0.00 | 0.00 | 0.00 | 89 | 1009.2 |
| 20260509120952 | 21 | 198 | 3.2 | 3.2 | 0.00 | 0.00 | 0.00 | 89 | 1008.9 |
| 20260509120449 | 20 | 152 | 0.0 | 0.0 | 0.00 | 0.00 | 0.00 | 89 | 1008.9 |
| 20260509115947 | 21 | 160 | 0.0 | 1.6 | 0.00 | 0.00 | 0.00 | 89 | 1009.0 |
| 20260509115444 | 21 | 165 | 1.6 | 1.6 | 0.00 | 0.00 | 0.00 | 89 | 1009.0 |
| 20260509114942 | 21 | 158 | 0.0 | 0.0 | 0.00 | 0.00 | 0.00 | 89 | 1009.2 |
| 20260509114440 | 21 | 160 | 0.0 | 0.0 | 0.00 | 0.00 | 0.00 | 89 | 1009.0 |
| 20260509113939 | 21 | 176 | 1.6 | 1.6 | 0.00 | 0.00 | 0.00 | 88 | 1008.5 |
| 20260509113436 | 21 | 156 | 0.0 | 0.0 | 0.00 | 0.00 | 0.00 | 88 | 1008.9 |
| 20260509112933 | 21 | 160 | 0.0 | 0.0 | 0.00 | 0.00 | 0.00 | 88 | 1008.8 |
| 20260509112430 | 21 | 186 | 0.0 | 1.6 | 0.00 | 0.00 | 0.00 | 88 | 1008.7 |
| 20260509111927 | 21 | 167 | 0.0 | 0.0 | 0.00 | 0.00 | 0.00 | 88 | 1008.6 |
| 20260509111424 | 21 | 150 | 0.0 | 0.0 | 0.00 | 0.00 | 0.00 | 89 | 1008.5 |
| 20260509110922 | 21 | 160 | 0.0 | 0.0 | 0.00 | 0.00 | 0.00 | 89 | 1008.5 |
| 20260509110417 | 21 | 162 | 1.6 | 1.6 | 0.00 | 0.00 | 0.00 | 88 | 1008.1 |
| 20260509105915 | 21 | 159 | 0.0 | 0.0 | 0.00 | 0.00 | 0.00 | 89 | 1008.2 |
| 20260509105414 | 21 | 159 | 0.0 | 1.6 | 0.00 | 0.00 | 0.00 | 89 | 1008.2 |
| 20260509104911 | 21 | 139 | 0.0 | 0.0 | 0.00 | 0.00 | 0.00 | 90 | 1008.1 |
| 20260509104407 | 21 | 141 | 0.0 | 0.0 | 0.00 | 0.00 | 0.00 | 89 | 1008.0 |
| 20260509103905 | 21 | 150 | 0.0 | 0.0 | 0.00 | 0.00 | 0.00 | 89 | 1008.3 |
| 20260509103402 | 21 | 152 | 1.6 | 1.6 | 0.00 | 0.00 | 0.00 | 89 | 1008.5 |
| 20260509102901 | 21 | 156 | 3.2 | 3.2 | 0.00 | 0.00 | 0.00 | 89 | 1008.1 |
| 20260509102357 | 22 | 141 | 1.6 | 3.2 | 0.00 | 0.00 | 0.00 | 88 | 1008.2 |
| 20260509101853 | 22 | 138 | 1.6 | 3.2 | 0.00 | 0.00 | 0.00 | 89 | 1008.3 |
| 20260509101349 | 22 | 255 | 1.6 | 3.2 | 0.00 | 0.00 | 0.00 | 89 | 1008.6 |
| 20260509100847 | 21 | 342 | 3.2 | 3.2 | 0.00 | 0.00 | 0.00 | 90 | 1008.5 |
| 20260509100344 | 21 | 286 | 3.2 | 4.8 | 0.00 | 0.00 | 0.00 | 90 | 1008.5 |
| 20260509095841 | 21 | 336 | 6.4 | 8.0 | 0.00 | 0.00 | 0.00 | 91 | 1008.0 |
| 20260509095338 | 21 | 346 | 3.2 | 4.8 | 0.00 | 0.00 | 0.00 | 91 | 1007.6 |
| 20260509094835 | 21 | 172 | 3.2 | 3.2 | 0.00 | 0.00 | 0.00 | 92 | 1007.3 |
| 20260509094332 | 21 | 295 | 9.7 | 12.9 | 0.00 | 0.00 | 0.00 | 92 | 1007.1 |
| 20260509093830 | 21 | 156 | 3.2 | 4.8 | 0.00 | 0.00 | 0.00 | 92 | 1006.0 |
| 20260509093326 | 21 | 191 | 4.8 | 8.0 | 0.00 | 0.00 | 0.00 | 92 | 1006.0 |
| 20260509092825 | 21 | 191 | 3.2 | 3.2 | 0.00 | 0.00 | 0.00 | 92 | 1005.7 |
| 20260509092323 | 21 | 177 | 3.2 | 3.2 | 0.00 | 0.00 | 0.00 | 92 | 1005.7 |
| 20260509091820 | 21 | 175 | 8.0 | 11.3 | 0.00 | 0.00 | 0.00 | 92 | 1005.8 |
| 20260509091317 | 21 | 149 | 3.2 | 3.2 | 0.00 | 0.00 | 0.00 | 92 | 1005.7 |
| 20260509090814 | 21 | 149 | 4.8 | 11.3 | 0.00 | 0.00 | 0.00 | 92 | 1005.9 |
| 20260509090311 | 21 | 157 | 4.8 | 8.0 | 0.00 | 0.00 | 0.00 | 92 | 1006.1 |
| 20260509085809 | 21 | 156 | 6.4 | 8.0 | 0.00 | 0.00 | 0.00 | 91 | 1006.2 |
| 20260509085307 | 21 | 180 | 6.4 | 9.7 | 0.00 | 0.00 | 0.00 | 91 | 1006.3 |
| 20260509084803 | 21 | 101 | 6.4 | 11.3 | 0.00 | 0.00 | 0.00 | 91 | 1005.8 |
| 20260509084300 | 21 | 117 | 6.4 | 11.3 | 0.00 | 0.00 | 0.00 | 91 | 1005.8 |
| 20260509083757 | 21 | 161 | 6.4 | 9.7 | 0.00 | 0.00 | 0.00 | 91 | 1006.0 |
| 20260509083253 | 21 | 129 | 4.8 | 8.0 | 0.00 | 0.00 | 0.00 | 91 | 1006.1 |
| 20260509082750 | 21 | 146 | 4.8 | 8.0 | 0.00 | 0.00 | 0.00 | 91 | 1006.0 |
| 20260509082247 | 21 | 151 | 3.2 | 4.8 | 0.00 | 0.00 | 0.00 | 92 | 1006.9 |
| 20260509081744 | 21 | 132 | 0.0 | 0.0 | 0.00 | 0.00 | 0.00 | 92 | 1007.0 |
| 20260509081241 | 21 | 162 | 1.6 | 1.6 | 0.00 | 0.00 | 0.00 | 92 | 1007.4 |
| 20260509080739 | 21 | 157 | 3.2 | 4.8 | 0.00 | 0.00 | 0.00 | 92 | 1007.6 |
| 20260509080237 | 21 | 147 | 4.8 | 8.0 | 0.00 | 0.00 | 0.00 | 92 | 1008.2 |
| 20260509075735 | 21 | 157 | 4.8 | 4.8 | 0.00 | 0.00 | 0.00 | 92 | 1008.5 |
| 20260509075232 | 21 | 145 | 0.0 | 0.0 | 0.00 | 0.00 | 0.00 | 91 | 1008.7 |
| 20260509074729 | 21 | 129 | 0.0 | 0.0 | 0.00 | 0.00 | 0.00 | 91 | 1008.8 |
| 20260509074227 | 21 | 156 | 1.6 | 1.6 | 0.00 | 0.00 | 0.00 | 91 | 1008.9 |
| 20260509073723 | 21 | 128 | 1.6 | 1.6 | 0.00 | 0.00 | 0.00 | 91 | 1009.1 |
| 20260509073219 | 21 | 157 | 3.2 | 3.2 | 0.00 | 0.00 | 0.00 | 91 | 1009.5 |
| 20260509072716 | 21 | 164 | 3.2 | 3.2 | 0.00 | 0.00 | 0.00 | 91 | 1009.3 |
| 20260509072213 | 21 | 146 | 0.0 | 0.0 | 0.00 | 0.00 | 0.00 | 91 | 1009.7 |
| 20260509071709 | 21 | 159 | 0.0 | 0.0 | 0.00 | 0.00 | 0.00 | 91 | 1009.9 |
| 20260509071207 | 21 | 158 | 1.6 | 1.6 | 0.00 | 0.00 | 0.00 | 91 | 1010.2 |
| 20260509070703 | 21 | 158 | 0.0 | 1.6 | 0.00 | 0.00 | 0.00 | 91 | 1010.2 |
| 20260509070200 | 21 | 147 | 0.0 | 1.6 | 0.00 | 0.00 | 0.00 | 92 | 1010.4 |
| 20260509065656 | 21 | 145 | 0.0 | 0.0 | 0.00 | 0.00 | 0.00 | 91 | 1010.2 |
| 20260509065152 | 21 | 149 | 0.0 | 0.0 | 0.00 | 0.00 | 0.00 | 91 | 1010.2 |
| 20260509064649 | 21 | 154 | 0.0 | 0.0 | 0.00 | 0.00 | 0.00 | 91 | 1010.0 |
| 20260509064147 | 21 | 158 | 0.0 | 0.0 | 0.00 | 0.00 | 0.00 | 91 | 1009.9 |
| 20260509063643 | 21 | 158 | 0.0 | 0.0 | 0.00 | 0.00 | 0.00 | 90 | 1010.0 |
| 20260509063140 | 21 | 146 | 0.0 | 0.0 | 0.00 | 0.00 | 0.00 | 90 | 1009.8 |
| 20260509062637 | 21 | 153 | 0.0 | 0.0 | 0.00 | 0.00 | 0.00 | 90 | 1009.9 |
| 20260509062134 | 21 | 163 | 0.0 | 0.0 | 0.00 | 0.00 | 0.00 | 90 | 1009.9 |
| 20260509061631 | 21 | 147 | 1.6 | 1.6 | 0.00 | 0.00 | 0.00 | 90 | 1010.0 |
| 20260509061129 | 21 | 157 | 0.0 | 0.0 | 0.00 | 0.00 | 0.00 | 90 | 1010.3 |
| 20260509060626 | 21 | 157 | 0.0 | 0.0 | 0.00 | 0.00 | 0.00 | 90 | 1010.6 |
| 20260509060122 | 21 | 77 | 0.0 | 0.0 | 0.00 | 0.00 | 0.00 | 90 | 1010.0 |
| 20260509055618 | 21 | 153 | 0.0 | 0.0 | 0.00 | 0.00 | 0.00 | 90 | 1010.0 |
| 20260509055113 | 21 | 166 | 0.0 | 0.0 | 0.00 | 0.00 | 0.00 | 90 | 1010.1 |
| 20260509054611 | 21 | 145 | 0.0 | 0.0 | 0.00 | 0.00 | 0.00 | 90 | 1010.4 |
| 20260509054108 | 21 | 155 | 1.6 | 1.6 | 0.00 | 0.00 | 0.00 | 90 | 1010.4 |
| 20260509053607 | 21 | 258 | 1.6 | 1.6 | 0.00 | 0.00 | 0.00 | 90 | 1010.2 |
| 20260509053103 | 21 | 223 | 1.6 | 1.6 | 0.00 | 0.00 | 0.00 | 90 | 1010.0 |
| 20260509052601 | 21 | 79 | 3.2 | 3.2 | 0.00 | 0.00 | 0.00 | 90 | 1009.7 |
| 20260509052059 | 21 | 127 | 0.0 | 0.0 | 0.00 | 0.00 | 0.00 | 90 | 1009.6 |
| 20260509051556 | 21 | 134 | 0.0 | 0.0 | 0.00 | 0.00 | 0.00 | 89 | 1009.4 |
| 20260509051053 | 21 | 134 | 0.0 | 0.0 | 0.00 | 0.00 | 0.00 | 89 | 1009.4 |
| 20260509050550 | 21 | 133 | 0.0 | 0.0 | 0.00 | 0.00 | 0.00 | 89 | 1009.3 |
| 20260509050046 | 21 | 138 | 0.0 | 0.0 | 0.00 | 0.00 | 0.00 | 89 | 1009.4 |
| 20260509045544 | 21 | 130 | 1.6 | 1.6 | 0.00 | 0.00 | 0.00 | 88 | 1009.3 |
| 20260509045041 | 21 | 150 | 0.0 | 0.0 | 0.00 | 0.00 | 0.00 | 88 | 1009.2 |
| 20260509044538 | 21 | 149 | 0.0 | 0.0 | 0.00 | 0.00 | 0.00 | 88 | 1009.2 |
| 20260509044035 | 21 | 152 | 0.0 | 0.0 | 0.00 | 0.00 | 0.00 | 87 | 1009.3 |
| 20260509043532 | 22 | 147 | 0.0 | 0.0 | 0.00 | 0.00 | 0.00 | 87 | 1009.4 |
| 20260509043027 | 22 | 145 | 0.0 | 0.0 | 0.00 | 0.00 | 0.00 | 87 | 1009.3 |
| 20260509042524 | 22 | 153 | 0.0 | 0.0 | 0.00 | 0.00 | 0.00 | 86 | 1009.2 |
| 20260509042020 | 22 | 143 | 1.6 | 1.6 | 0.00 | 0.00 | 0.00 | 86 | 1009.1 |
| 20260509041517 | 22 | 151 | 3.2 | 3.2 | 0.00 | 0.00 | 0.00 | 86 | 1009.8 |
| 20260509041015 | 22 | 128 | 3.2 | 3.2 | 0.00 | 0.00 | 0.00 | 86 | 1010.1 |
| 20260509040513 | 22 | 40 | 1.6 | 3.2 | 0.00 | 0.00 | 0.00 | 86 | 1010.0 |
| 20260509040009 | 22 | 98 | 0.0 | 0.0 | 0.00 | 0.00 | 0.00 | 86 | 1009.6 |
| 20260509035506 | 22 | 125 | 0.0 | 0.0 | 0.00 | 0.00 | 0.00 | 86 | 1009.4 |
| 20260509035003 | 22 | 128 | 1.6 | 1.6 | 0.00 | 0.00 | 0.00 | 86 | 1009.5 |
| 20260509034501 | 22 | 132 | 0.0 | 0.0 | 0.00 | 0.00 | 0.00 | 86 | 1009.2 |
| 20260509033958 | 22 | 158 | 4.8 | 4.8 | 0.00 | 0.00 | 0.00 | 86 | 1008.9 |
| 20260509033454 | 22 | 123 | 1.6 | 1.6 | 0.00 | 0.00 | 0.00 | 86 | 1009.0 |
| 20260509032951 | 22 | 136 | 0.0 | 0.0 | 0.00 | 0.00 | 0.00 | 86 | 1008.9 |
| 20260509032449 | 22 | 139 | 0.0 | 0.0 | 0.00 | 0.00 | 0.00 | 85 | 1009.1 |
| 20260509031946 | 22 | 129 | 3.2 | 4.8 | 0.00 | 0.00 | 0.00 | 85 | 1008.8 |
| 20260509031443 | 22 | 139 | 0.0 | 0.0 | 0.00 | 0.00 | 0.00 | 85 | 1008.6 |
| 20260509030940 | 22 | 130 | 1.6 | 1.6 | 0.00 | 0.00 | 0.00 | 84 | 1008.6 |
| 20260509030439 | 22 | 151 | 4.8 | 4.8 | 0.00 | 0.00 | 0.00 | 84 | 1008.5 |
| 20260509025935 | 22 | 128 | 1.6 | 1.6 | 0.00 | 0.00 | 0.00 | 84 | 1008.6 |
| 20260509025431 | 22 | 107 | 1.6 | 1.6 | 0.00 | 0.00 | 0.00 | 83 | 1008.3 |
| 20260509024926 | 22 | 144 | 1.6 | 1.6 | 0.00 | 0.00 | 0.00 | 83 | 1008.3 |
| 20260509024422 | 22 | 140 | 3.2 | 3.2 | 0.00 | 0.00 | 0.00 | 83 | 1008.0 |
| 20260509023920 | 22 | 138 | 0.0 | 1.6 | 0.00 | 0.00 | 0.00 | 83 | 1008.0 |
| 20260509023417 | 22 | 145 | 1.6 | 1.6 | 0.00 | 0.00 | 0.00 | 83 | 1007.9 |
| 20260509022913 | 22 | 133 | 4.8 | 9.7 | 0.00 | 0.00 | 0.00 | 83 | 1007.8 |
| 20260509022411 | 22 | 129 | 0.0 | 1.6 | 0.00 | 0.00 | 0.00 | 83 | 1007.7 |
| 20260509021908 | 22 | 156 | 0.0 | 1.6 | 0.00 | 0.00 | 0.00 | 83 | 1008.0 |
| 20260509021405 | 22 | 140 | 1.6 | 1.6 | 0.00 | 0.00 | 0.00 | 83 | 1008.0 |
| 20260509020902 | 22 | 144 | 1.6 | 3.2 | 0.00 | 0.00 | 0.00 | 82 | 1007.8 |
| 20260509020400 | 22 | 159 | 3.2 | 4.8 | 0.00 | 0.00 | 0.00 | 82 | 1007.8 |
| 20260509015857 | 22 | 151 | 1.6 | 3.2 | 0.00 | 0.00 | 0.00 | 82 | 1007.8 |
| 20260509015355 | 22 | 176 | 3.2 | 3.2 | 0.00 | 0.00 | 0.00 | 82 | 1008.1 |
| 20260509014852 | 22 | 136 | 1.6 | 1.6 | 0.00 | 0.00 | 0.00 | 82 | 1007.9 |
| 20260509014349 | 22 | 150 | 1.6 | 1.6 | 0.00 | 0.00 | 0.00 | 82 | 1008.1 |
| 20260509013845 | 22 | 144 | 1.6 | 1.6 | 0.00 | 0.00 | 0.00 | 82 | 1008.1 |
| 20260509013342 | 22 | 122 | 1.6 | 3.2 | 0.00 | 0.00 | 0.00 | 82 | 1007.9 |
| 20260509012838 | 22 | 138 | 1.6 | 3.2 | 0.00 | 0.00 | 0.00 | 82 | 1007.8 |
| 20260509012334 | 22 | 132 | 0.0 | 0.0 | 0.00 | 0.00 | 0.00 | 82 | 1007.8 |
| 20260509011832 | 22 | 151 | 1.6 | 1.6 | 0.00 | 0.00 | 0.00 | 82 | 1007.8 |
| 20260509011329 | 22 | 133 | 1.6 | 1.6 | 0.00 | 0.00 | 0.00 | 82 | 1007.8 |
| 20260509010827 | 22 | 135 | 0.0 | 0.0 | 0.00 | 0.00 | 0.00 | 82 | 1007.6 |
| 20260509010324 | 22 | 141 | 1.6 | 1.6 | 0.00 | 0.00 | 0.00 | 82 | 1007.5 |
| 20260509005821 | 22 | 155 | 1.6 | 1.6 | 0.00 | 0.00 | 0.00 | 81 | 1007.4 |
| 20260509005319 | 22 | 164 | 0.0 | 1.6 | 0.00 | 0.00 | 0.00 | 81 | 1007.3 |
| 20260509004819 | 22 | 173 | 8.0 | 9.7 | 0.00 | 0.00 | 0.00 | 81 | 1007.1 |
| 20260509004316 | 23 | 149 | 1.6 | 1.6 | 0.00 | 0.00 | 0.00 | 81 | 1007.1 |
| 20260509003814 | 23 | 146 | 1.6 | 1.6 | 0.00 | 0.00 | 0.00 | 81 | 1007.2 |
| 20260509003312 | 23 | 163 | 1.6 | 3.2 | 0.00 | 0.00 | 0.00 | 81 | 1007.2 |
| 20260509002809 | 23 | 147 | 0.0 | 0.0 | 0.00 | 0.00 | 0.00 | 80 | 1007.2 |
| 20260509002306 | 23 | 138 | 1.6 | 3.2 | 0.00 | 0.00 | 0.00 | 80 | 1007.3 |
| 20260509001804 | 23 | 148 | 1.6 | 1.6 | 0.00 | 0.00 | 0.00 | 80 | 1007.2 |
| 20260509001259 | 23 | 163 | 1.6 | 1.6 | 0.00 | 0.00 | 0.00 | 80 | 1007.3 |
| 20260509000757 | 23 | 201 | 1.6 | 3.2 | 0.00 | 0.00 | 0.00 | 79 | 1007.4 |
| 20260509000256 | 23 | 156 | 1.6 | 3.2 | 0.00 | 0.00 | 0.00 | 79 | 1007.3 |
| 20260508235751 | 23 | 157 | 3.2 | 3.2 | 0.00 | 0.00 | 0.00 | 79 | 1007.6 |
| 20260508235248 | 23 | 166 | 1.6 | 1.6 | 0.00 | 0.00 | 0.00 | 79 | 1007.3 |
| 20260508234745 | 23 | 128 | 3.2 | 3.2 | 0.00 | 0.00 | 0.00 | 78 | 1007.4 |
| 20260508234241 | 23 | 88 | 1.6 | 1.6 | 0.00 | 0.00 | 0.00 | 78 | 1007.8 |
| 20260508233741 | 23 | 110 | 1.6 | 3.2 | 0.00 | 0.00 | 0.00 | 78 | 1007.9 |
| 20260508233239 | 23 | 157 | 3.2 | 3.2 | 0.00 | 0.00 | 0.00 | 78 | 1007.6 |
| 20260508232736 | 23 | 172 | 3.2 | 3.2 | 0.00 | 0.00 | 0.00 | 78 | 1007.5 |
| 20260508232232 | 23 | 138 | 1.6 | 1.6 | 0.00 | 0.00 | 0.00 | 77 | 1007.4 |
| 20260508231730 | 23 | 146 | 3.2 | 3.2 | 0.00 | 0.00 | 0.00 | 77 | 1007.5 |
| 20260508231226 | 23 | 156 | 1.6 | 3.2 | 0.00 | 0.00 | 0.00 | 77 | 1007.7 |
| 20260508230724 | 23 | 127 | 3.2 | 3.2 | 0.00 | 0.00 | 0.00 | 76 | 1007.4 |
| 20260508230219 | 23 | 127 | 3.2 | 4.8 | 0.00 | 0.00 | 0.00 | 76 | 1007.5 |
| 20260508225718 | 23 | 148 | 3.2 | 4.8 | 0.00 | 0.00 | 0.00 | 75 | 1007.7 |
| 20260508225214 | 24 | 122 | 4.8 | 8.0 | 0.00 | 0.00 | 0.00 | 73 | 1007.6 |
| 20260508224712 | 24 | 125 | 3.2 | 8.0 | 0.00 | 0.00 | 0.00 | 73 | 1007.5 |
| 20260508224209 | 23 | 204 | 1.6 | 3.2 | 0.00 | 0.00 | 0.00 | 75 | 1007.5 |
| 20260508223707 | 23 | 125 | 6.4 | 8.0 | 0.00 | 0.00 | 0.00 | 73 | 1007.6 |
| 20260508223203 | 23 | 118 | 1.6 | 4.8 | 0.00 | 0.00 | 0.00 | 74 | 1007.6 |
| 20260508222701 | 23 | 152 | 4.8 | 4.8 | 0.00 | 0.00 | 0.00 | 74 | 1007.6 |
| 20260508222158 | 23 | 158 | 6.4 | 8.0 | 0.00 | 0.00 | 0.00 | 73 | 1007.7 |
| 20260508221654 | 23 | 125 | 3.2 | 3.2 | 0.00 | 0.00 | 0.00 | 73 | 1007.9 |
| 20260508221150 | 23 | 125 | 4.8 | 8.0 | 0.00 | 0.00 | 0.00 | 73 | 1007.8 |
| 20260508220647 | 23 | 154 | 4.8 | 8.0 | 0.00 | 0.00 | 0.00 | 74 | 1008.0 |
| 20260508220144 | 22 | 144 | 8.0 | 9.7 | 0.00 | 0.00 | 0.00 | 74 | 1007.7 |
| 20260508215640 | 23 | 74 | 6.4 | 8.0 | 0.00 | 0.00 | 0.00 | 73 | 1008.0 |
| 20260508215137 | 22 | 152 | 1.6 | 1.6 | 0.00 | 0.00 | 0.00 | 74 | 1008.2 |
| 20260508214634 | 23 | 150 | 4.8 | 4.8 | 0.00 | 0.00 | 0.00 | 72 | 1008.2 |
| 20260508214131 | 22 | 159 | 3.2 | 3.2 | 0.00 | 0.00 | 0.00 | 73 | 1008.0 |
| 20260508213628 | 22 | 144 | 3.2 | 3.2 | 0.00 | 0.00 | 0.00 | 74 | 1008.0 |
| 20260508213124 | 22 | 128 | 4.8 | 8.0 | 0.00 | 0.00 | 0.00 | 74 | 1008.5 |
| 20260508212620 | 22 | 144 | 3.2 | 3.2 | 0.00 | 0.00 | 0.00 | 74 | 1008.6 |
| 20260508212117 | 22 | 122 | 1.6 | 1.6 | 0.00 | 0.00 | 0.00 | 73 | 1008.7 |
| 20260508211612 | 23 | 154 | 6.4 | 9.7 | 0.00 | 0.00 | 0.00 | 71 | 1008.7 |
| 20260508211109 | 22 | 148 | 3.2 | 3.2 | 0.00 | 0.00 | 0.00 | 71 | 1008.8 |
| 20260508210605 | 22 | 173 | 6.4 | 8.0 | 0.00 | 0.00 | 0.00 | 72 | 1008.6 |
| 20260508205600 | 22 | 139 | 4.8 | 4.8 | 0.00 | 0.00 | 0.00 | 72 | 1008.3 |
| 20260508205056 | 21 | 191 | 3.2 | 4.8 | 0.00 | 0.00 | 0.00 | 77 | 1008.7 |
| 20260508204552 | 21 | 192 | 1.6 | 3.2 | 0.00 | 0.00 | 0.00 | 79 | 1009.3 |
| 20260508204048 | 20 | 110 | 4.8 | 4.8 | 0.00 | 0.00 | 0.00 | 78 | 1008.1 |
| 20260508203545 | 20 | 114 | 3.2 | 3.2 | 0.00 | 0.00 | 0.00 | 78 | 1008.6 |
| 20260508203041 | 20 | 108 | 4.8 | 4.8 | 0.00 | 0.00 | 0.00 | 77 | 1008.9 |
| 20260508202538 | 21 | 159 | 3.2 | 3.2 | 0.00 | 0.00 | 0.00 | 77 | 1009.5 |
| 20260508202035 | 21 | 131 | 3.2 | 3.2 | 0.00 | 0.00 | 0.00 | 75 | 1009.5 |
| 20260508201532 | 21 | 130 | 1.6 | 3.2 | 0.00 | 0.00 | 0.00 | 74 | 1009.7 |
| 20260508201028 | 21 | 164 | 1.6 | 1.6 | 0.00 | 0.00 | 0.00 | 72 | 1010.3 |
| 20260508200525 | 21 | 66 | 3.2 | 4.8 | 0.00 | 0.00 | 0.00 | 70 | 1010.3 |
| 20260508200021 | 22 | 141 | 1.6 | 1.6 | 0.00 | 0.00 | 0.00 | 71 | 1010.2 |
| 20260508195518 | 22 | 160 | 3.2 | 3.2 | 0.00 | 0.00 | 0.00 | 71 | 1010.3 |
| 20260508195014 | 22 | 146 | 3.2 | 3.2 | 0.00 | 0.00 | 0.00 | 71 | 1010.3 |
| 20260508194511 | 22 | 143 | 9.7 | 11.3 | 0.00 | 0.00 | 0.00 | 70 | 1010.2 |
| 20260508194008 | 22 | 119 | 1.6 | 3.2 | 0.00 | 0.00 | 0.00 | 69 | 1010.3 |
| 20260508193504 | 22 | 209 | 3.2 | 3.2 | 0.00 | 0.00 | 0.00 | 70 | 1010.1 |
| 20260508193001 | 22 | 133 | 4.8 | 4.8 | 0.00 | 0.00 | 0.00 | 69 | 1010.1 |
| 20260508192458 | 23 | 146 | 8.0 | 9.7 | 0.00 | 0.00 | 0.00 | 66 | 1010.1 |
| 20260508191955 | 23 | 267 | 4.8 | 8.0 | 0.00 | 0.00 | 0.00 | 67 | 1010.2 |
| 20260508191452 | 23 | 129 | 12.9 | 14.5 | 0.00 | 0.00 | 0.00 | 67 | 1010.1 |
| 20260508190949 | 23 | 152 | 1.6 | 3.2 | 0.00 | 0.00 | 0.00 | 68 | 1010.4 |
| 20260508190446 | 22 | 144 | 4.8 | 4.8 | 0.00 | 0.00 | 0.00 | 69 | 1010.3 |
| 20260508185942 | 22 | 188 | 3.2 | 3.2 | 0.00 | 0.00 | 0.00 | 68 | 1010.5 |
| 20260508185440 | 22 | 217 | 4.8 | 4.8 | 0.00 | 0.00 | 0.00 | 69 | 1010.4 |
| 20260508184937 | 22 | 159 | 4.8 | 8.0 | 0.00 | 0.00 | 0.00 | 69 | 1010.5 |
| 20260508184434 | 22 | 135 | 3.2 | 4.8 | 0.00 | 0.00 | 0.00 | 68 | 1010.8 |
| 20260508183931 | 22 | 169 | 4.8 | 4.8 | 0.00 | 0.00 | 0.00 | 69 | 1010.7 |
| 20260508183427 | 23 | 184 | 3.2 | 4.8 | 0.00 | 0.00 | 0.00 | 69 | 1010.6 |
| 20260508182922 | 23 | 191 | 1.6 | 3.2 | 0.00 | 0.00 | 0.00 | 67 | 1010.8 |
| 20260508182420 | 23 | 155 | 4.8 | 8.0 | 0.00 | 0.00 | 0.00 | 67 | 1010.7 |
| 20260508181915 | 23 | 186 | 8.0 | 9.7 | 0.00 | 0.00 | 0.00 | 65 | 1011.0 |
| 20260508181412 | 23 | 187 | 4.8 | 4.8 | 0.00 | 0.00 | 0.00 | 66 | 1010.8 |
| 20260508180909 | 23 | 131 | 1.6 | 1.6 | 0.00 | 0.00 | 0.00 | 66 | 1010.9 |
| 20260508180406 | 23 | 129 | 3.2 | 4.8 | 0.00 | 0.00 | 0.00 | 66 | 1010.9 |
| 20260508175902 | 23 | 158 | 3.2 | 4.8 | 0.00 | 0.00 | 0.00 | 66 | 1010.8 |
| 20260508175359 | 23 | 134 | 0.0 | 1.6 | 0.00 | 0.00 | 0.00 | 67 | 1011.0 |
| 20260508174857 | 23 | 145 | 0.0 | 1.6 | 0.00 | 0.00 | 0.00 | 67 | 1011.0 |
| 20260508174354 | 22 | 238 | 3.2 | 3.2 | 0.00 | 0.00 | 0.00 | 68 | 1011.4 |